KPMD/PMD METAR and TAF weather

Enter ICAO airport designator
Station Type Date Time Source
KPMD METAR 2018/12/12 11:53 UTC NOAA

KPMD 121153Z AUTO 19008KT 10SM CLR 03/M01 A3006 RMK AO2 SLP175 T00331006 10061 20033 58019


Station Type Date Time Source
KPMD Decoded METAR 2018/12/12 11:53 UTC NOAA

PALMDALE PROD FLIGHT PLANT, CA, United States (KPMD) 34-38N 118-05W 780M
Dec 12, 2018 - 06:53 AM EST / 2018.12.12 1153 UTC
Wind: from the S (190 degrees) at 9 MPH (8 KT):0
Visibility: 10 mile(s):0
Sky conditions: clear
Temperature: 37.9 F (3.3 C)
Dew Point: 30.9 F (-0.6 C)
Relative Humidity: 75%
Pressure (altimeter): 30.06 in. Hg (1017 hPa)
Pressure tendency: 0.06 inches (1.9 hPa) lower than three hours ago
ob: KPMD 121153Z AUTO 19008KT 10SM CLR 03/M01 A3006 RMK AO2 SLP175 T00331006 10061 20033 58019
cycle: 12

Station Type Date Time Source
KPMD TAF 2018/12/12 12:24 UTC NOAA

TAF KPMD 121121Z 1212/1312 21008KT P6SM BKN250
FM122000 03008KT P6SM BKN250
FM130000 12006KT P6SM SCT250
FM130500 VRB04KT P6SM SCT250


Example: see airport list